Time;durP1;ratioP1;P1;durP2;ratioP2;P2;SDS_P1;SDS_P2;PMS_P1;PMS_P2;Temp;Humidity;BMP_temperature;BMP_pressure;BME280_temperature;BME280_humidity;BME280_pressure;Samples;Min_cycle;Max_cycle;Signal;HPM_P1;HPM_P2
2021/06/26 00:01:16;;;;;;;3.10;2.20;;;27.30;49.80;;;;;;5058824;28;20519;-60
2021/06/26 00:03:41;;;;;;;3.22;2.60;;;27.30;49.90;;;;;;5062700;28;20111;-57
2021/06/26 00:06:07;;;;;;;3.10;2.17;;;27.40;49.90;;;;;;5066677;28;20028;-59
2021/06/26 00:08:32;;;;;;;3.00;2.22;;;27.30;49.90;;;;;;5067554;28;20016;-58
2021/06/26 00:10:58;;;;;;;2.80;2.40;;;27.30;49.80;;;;;;5049952;28;20044;-55
2021/06/26 00:13:25;;;;;;;3.35;2.35;;;27.30;49.90;;;;;;5053354;28;20033;-58
2021/06/26 00:15:51;;;;;;;3.03;2.28;;;27.30;49.90;;;;;;5053874;28;20589;-57
2021/06/26 00:18:16;;;;;;;3.25;2.33;;;27.30;49.90;;;;;;5055119;28;20040;-59
2021/06/26 00:20:43;;;;;;;3.05;2.17;;;27.30;49.90;;;;;;5053474;28;20029;-57
2021/06/26 00:23:09;;;;;;;2.90;2.10;;;27.20;49.90;;;;;;5057925;28;20081;-56
2021/06/26 00:25:35;;;;;;;3.45;1.95;;;27.20;49.90;;;;;;5062448;28;20104;-53
2021/06/26 00:28:02;;;;;;;3.88;2.20;;;27.20;49.90;;;;;;5053734;28;20640;-57
2021/06/26 00:30:28;;;;;;;2.80;1.90;;;27.20;49.90;;;;;;5057762;28;20470;-57
2021/06/26 00:32:54;;;;;;;4.15;2.40;;;27.20;49.90;;;;;;5059383;28;20033;-57
2021/06/26 00:35:20;;;;;;;3.05;2.20;;;27.20;49.90;;;;;;5053859;28;20531;-58
2021/06/26 00:37:46;;;;;;;2.85;2.20;;;27.20;49.90;;;;;;5064034;28;20119;-58
2021/06/26 00:40:12;;;;;;;3.20;2.30;;;27.10;49.80;;;;;;5054596;28;20033;-52
2021/06/26 00:42:40;;;;;;;3.00;2.08;;;27.20;49.90;;;;;;5045527;28;20060;-57
2021/06/26 00:45:08;;;;;;;3.10;2.15;;;27.10;49.80;;;;;;5057403;28;20047;-55
2021/06/26 00:47:34;;;;;;;2.78;2.03;;;27.10;49.80;;;;;;5055575;28;20037;-57
2021/06/26 00:49:59;;;;;;;3.53;2.20;;;27.10;49.80;;;;;;5062831;28;20753;-57
2021/06/26 00:52:25;;;;;;;3.40;2.55;;;27.10;49.80;;;;;;5065521;28;20040;-59
2021/06/26 00:54:51;;;;;;;3.13;2.30;;;27.10;49.80;;;;;;5064614;28;20048;-57
2021/06/26 00:57:19;;;;;;;3.97;2.47;;;27.10;49.90;;;;;;5064711;28;20470;-59
2021/06/26 00:59:45;;;;;;;3.08;2.30;;;27.10;49.90;;;;;;5058428;28;20024;-56
2021/06/26 01:02:11;;;;;;;3.92;2.40;;;27.10;49.90;;;;;;5056865;28;20136;-54
2021/06/26 01:04:36;;;;;;;3.97;2.35;;;27.00;49.80;;;;;;5055333;28;20104;-54
2021/06/26 01:07:03;;;;;;;3.00;2.33;;;27.10;49.90;;;;;;5055787;28;20511;-59
2021/06/26 01:09:29;;;;;;;3.30;2.20;;;27.00;49.80;;;;;;5062929;28;20064;-57
2021/06/26 01:11:57;;;;;;;2.90;2.20;;;27.00;49.80;;;;;;5056449;28;20036;-57
2021/06/26 01:14:28;;;;;;;3.63;2.30;;;27.00;49.80;;;;;;5045374;28;20021;-55
2021/06/26 01:16:55;;;;;;;3.92;2.30;;;27.00;49.80;;;;;;5062959;28;20063;-52
2021/06/26 01:19:20;;;;;;;3.70;2.40;;;27.00;49.80;;;;;;5064808;28;20047;-57
2021/06/26 01:21:52;;;;;;;2.92;2.17;;;27.00;49.80;;;;;;5053414;28;20033;-57
2021/06/26 01:24:18;;;;;;;3.47;2.10;;;27.00;49.80;;;;;;5043313;28;20021;-54
2021/06/26 01:26:44;;;;;;;3.17;2.30;;;27.00;49.80;;;;;;5063440;28;20024;-57
2021/06/26 01:29:11;;;;;;;2.80;2.17;;;26.90;49.80;;;;;;5065336;28;20029;-56
2021/06/26 01:31:37;;;;;;;3.92;2.53;;;27.00;49.80;;;;;;5048619;28;20059;-55
2021/06/26 01:34:03;;;;;;;2.88;2.25;;;27.00;49.80;;;;;;5050074;28;20118;-57
2021/06/26 01:36:29;;;;;;;2.83;2.30;;;26.90;49.70;;;;;;5059988;28;20462;-58
2021/06/26 01:38:57;;;;;;;3.47;2.42;;;26.90;49.70;;;;;;5062760;28;20036;-57
2021/06/26 01:41:24;;;;;;;3.40;2.05;;;26.90;49.80;;;;;;5061613;28;20100;-56
2021/06/26 01:43:50;;;;;;;2.90;2.08;;;26.90;49.70;;;;;;5048013;28;20025;-56
2021/06/26 01:46:16;;;;;;;3.25;2.30;;;26.90;49.70;;;;;;5060129;28;20368;-56
2021/06/26 01:48:42;;;;;;;3.20;2.38;;;26.90;49.80;;;;;;5064429;28;20029;-53
2021/06/26 01:51:07;;;;;;;3.05;2.20;;;26.90;50.30;;;;;;5060766;28;20064;-59
2021/06/26 01:53:33;;;;;;;3.45;2.40;;;26.90;49.80;;;;;;5056314;28;20490;-55
2021/06/26 01:55:59;;;;;;;3.05;2.33;;;26.80;49.70;;;;;;5047060;28;20044;-58
2021/06/26 01:58:24;;;;;;;2.75;2.10;;;26.80;49.70;;;;;;5049174;28;20116;-56
2021/06/26 02:00:51;;;;;;;3.45;2.10;;;26.90;49.80;;;;;;5050154;28;20041;-55
2021/06/26 02:03:16;;;;;;;2.58;1.90;;;26.80;49.90;;;;;;5049575;28;20485;-55
2021/06/26 02:05:43;;;;;;;3.35;2.33;;;26.80;49.70;;;;;;5064335;28;20112;-57
2021/06/26 02:08:08;;;;;;;2.90;2.20;;;26.80;49.70;;;;;;5050411;28;20267;-57
2021/06/26 02:10:34;;;;;;;2.75;2.13;;;26.80;49.80;;;;;;5050852;28;20425;-55
2021/06/26 02:13:00;;;;;;;3.58;2.50;;;26.80;49.70;;;;;;5045302;28;20029;-58
2021/06/26 02:15:25;;;;;;;3.55;2.03;;;26.80;49.80;;;;;;5057094;28;20504;-54
2021/06/26 02:17:51;;;;;;;3.47;2.38;;;26.80;49.80;;;;;;5060908;28;20041;-53
2021/06/26 02:20:17;;;;;;;2.97;2.20;;;26.70;49.70;;;;;;5058715;28;20038;-52
2021/06/26 02:22:45;;;;;;;3.22;2.30;;;26.80;49.70;;;;;;5063047;28;20036;-57
2021/06/26 02:25:11;;;;;;;3.05;2.20;;;26.70;49.70;;;;;;5048456;28;20099;-58
2021/06/26 02:27:37;;;;;;;3.47;2.33;;;26.70;49.70;;;;;;5047666;28;20506;-60
2021/06/26 02:30:07;;;;;;;3.35;2.30;;;26.70;49.70;;;;;;5055363;28;20104;-57
2021/06/26 02:32:33;;;;;;;3.30;2.15;;;26.70;49.70;;;;;;5057970;28;20028;-57
2021/06/26 02:34:58;;;;;;;3.05;2.22;;;26.70;49.70;;;;;;5059113;28;20082;-58
2021/06/26 02:37:24;;;;;;;3.13;2.10;;;26.70;49.70;;;;;;5057402;28;20044;-58
2021/06/26 02:39:50;;;;;;;2.40;1.98;;;26.70;49.70;;;;;;5047849;28;20549;-55
2021/06/26 02:42:16;;;;;;;4.18;2.22;;;26.70;49.70;;;;;;5055295;28;20058;-57
2021/06/26 02:44:42;;;;;;;2.78;2.20;;;26.70;49.70;;;;;;5058879;28;20024;-55
2021/06/26 02:47:07;;;;;;;3.28;2.22;;;26.70;49.70;;;;;;5049760;28;20063;-59
2021/06/26 02:49:33;;;;;;;2.90;2.17;;;26.70;49.70;;;;;;5059760;28;20029;-54
2021/06/26 02:51:58;;;;;;;2.78;2.10;;;26.70;49.70;;;;;;5053594;28;20477;-57
2021/06/26 02:54:24;;;;;;;3.80;2.20;;;26.70;50.20;;;;;;5059364;28;20086;-59
2021/06/26 02:56:49;;;;;;;2.95;2.10;;;26.60;49.60;;;;;;5061632;28;20328;-52
2021/06/26 02:59:15;;;;;;;3.30;2.10;;;26.60;49.70;;;;;;5053043;28;20106;-57
2021/06/26 03:01:41;;;;;;;2.92;2.10;;;26.60;49.60;;;;;;5059811;28;20153;-54
2021/06/26 03:04:06;;;;;;;2.65;1.98;;;26.60;49.70;;;;;;5047374;28;20448;-57
2021/06/26 03:06:32;;;;;;;3.45;2.15;;;26.70;49.70;;;;;;5045469;28;20128;-57
2021/06/26 03:08:57;;;;;;;3.03;2.10;;;26.60;49.70;;;;;;5064581;28;20096;-58
2021/06/26 03:11:23;;;;;;;2.60;2.00;;;26.60;49.60;;;;;;5059728;28;20195;-58
2021/06/26 03:13:49;;;;;;;2.92;1.88;;;26.60;50.20;;;;;;5063075;28;20150;-56
2021/06/26 03:16:14;;;;;;;3.35;2.40;;;26.60;49.70;;;;;;5065396;28;20097;-56
2021/06/26 03:18:43;;;;;;;2.83;1.92;;;26.60;49.70;;;;;;5067477;28;20048;-55
2021/06/26 03:21:12;;;;;;;2.67;1.98;;;26.60;49.70;;;;;;5055011;28;20021;-58
2021/06/26 03:23:39;;;;;;;2.50;1.90;;;26.60;49.70;;;;;;5058186;28;20090;-56
2021/06/26 03:26:05;;;;;;;2.88;2.08;;;26.60;49.60;;;;;;5055466;28;20037;-54
2021/06/26 03:28:32;;;;;;;2.78;1.98;;;26.60;49.60;;;;;;5060615;28;20104;-58
2021/06/26 03:30:57;;;;;;;2.63;1.90;;;26.60;49.60;;;;;;5067308;28;20535;-58
2021/06/26 03:33:23;;;;;;;2.67;2.05;;;26.60;49.70;;;;;;5062909;28;20071;-58
2021/06/26 03:35:49;;;;;;;2.63;1.92;;;26.60;49.60;;;;;;5060386;28;20140;-58
2021/06/26 03:38:15;;;;;;;2.75;1.90;;;26.50;49.60;;;;;;5052665;28;20041;-57
2021/06/26 03:40:40;;;;;;;2.65;1.80;;;26.50;49.60;;;;;;5056707;28;20028;-58
2021/06/26 03:43:06;;;;;;;2.55;2.00;;;26.50;49.60;;;;;;5064991;28;20396;-60
2021/06/26 03:45:32;;;;;;;2.90;1.90;;;26.50;49.60;;;;;;5067230;28;20029;-55
2021/06/26 03:47:57;;;;;;;3.40;1.85;;;26.50;49.60;;;;;;5064689;28;20417;-58
2021/06/26 03:50:23;;;;;;;3.25;2.28;;;26.50;49.60;;;;;;5063638;28;20036;-56
2021/06/26 03:52:49;;;;;;;2.58;1.90;;;26.50;49.60;;;;;;5064707;28;20399;-58
2021/06/26 03:55:15;;;;;;;3.00;2.00;;;26.50;49.60;;;;;;5054710;28;20333;-58
2021/06/26 03:57:40;;;;;;;2.60;1.90;;;26.50;50.10;;;;;;5061629;28;20104;-57
2021/06/26 04:00:08;;;;;;;2.22;1.73;;;26.50;49.60;;;;;;5054213;28;20115;-59
2021/06/26 04:02:34;;;;;;;3.30;2.20;;;26.50;49.60;;;;;;5064356;28;20055;-58
2021/06/26 04:04:59;;;;;;;2.47;1.90;;;26.50;49.60;;;;;;5058398;28;20025;-55
2021/06/26 04:07:25;;;;;;;2.80;2.00;;;26.40;49.50;;;;;;5062963;28;20043;-54
2021/06/26 04:09:50;;;;;;;2.67;1.90;;;26.50;49.70;;;;;;5059509;28;20453;-55
2021/06/26 04:12:16;;;;;;;2.40;1.77;;;26.40;49.60;;;;;;5050983;28;20124;-55
2021/06/26 04:14:42;;;;;;;2.70;1.90;;;26.50;49.60;;;;;;5066434;28;20118;-58
2021/06/26 04:17:07;;;;;;;2.65;1.67;;;26.40;50.10;;;;;;5058412;28;20060;-59
2021/06/26 04:19:33;;;;;;;3.25;1.98;;;26.40;49.60;;;;;;5056962;28;20051;-58
2021/06/26 04:21:59;;;;;;;2.30;1.77;;;26.50;49.70;;;;;;5056029;28;20124;-60
2021/06/26 04:24:24;;;;;;;2.25;1.90;;;26.40;49.60;;;;;;5059417;28;20085;-60
2021/06/26 04:26:50;;;;;;;2.40;1.90;;;26.40;49.60;;;;;;5053678;28;20032;-59
2021/06/26 04:29:17;;;;;;;2.67;2.10;;;26.40;49.60;;;;;;5053183;28;20033;-58
2021/06/26 04:31:43;;;;;;;2.20;1.98;;;26.40;49.60;;;;;;5057470;28;20557;-58
2021/06/26 04:34:09;;;;;;;2.40;1.75;;;26.40;49.60;;;;;;5052944;28;20117;-55
2021/06/26 04:36:34;;;;;;;2.40;1.90;;;26.40;49.60;;;;;;5065085;28;20024;-57
2021/06/26 04:39:00;;;;;;;2.40;1.88;;;26.40;50.20;;;;;;5056781;28;20456;-54
2021/06/26 04:41:27;;;;;;;3.60;1.80;;;26.40;50.10;;;;;;5050041;28;20037;-57
2021/06/26 04:43:53;;;;;;;2.53;1.90;;;26.40;49.60;;;;;;5052757;28;20033;-57
2021/06/26 04:46:19;;;;;;;2.83;2.00;;;26.40;49.60;;;;;;5049082;28;20051;-58
2021/06/26 04:48:44;;;;;;;2.92;1.70;;;26.30;49.60;;;;;;5049540;28;20503;-56
2021/06/26 04:51:11;;;;;;;2.42;1.80;;;26.30;49.60;;;;;;5053719;28;20032;-57
2021/06/26 04:53:39;;;;;;;2.60;1.88;;;26.40;49.60;;;;;;5064149;28;20123;-56
2021/06/26 04:56:04;;;;;;;2.78;1.80;;;26.30;49.60;;;;;;5063920;28;20526;-57
2021/06/26 04:58:30;;;;;;;3.53;1.95;;;26.30;49.60;;;;;;5065974;28;20127;-57
2021/06/26 05:00:58;;;;;;;1.90;1.50;;;26.30;49.60;;;;;;5049352;28;20468;-59
2021/06/26 05:03:23;;;;;;;2.20;1.60;;;26.30;49.60;;;;;;5046537;28;20403;-57
2021/06/26 05:05:50;;;;;;;3.22;1.85;;;26.30;49.60;;;;;;5045000;28;20025;-58
2021/06/26 05:08:16;;;;;;;2.65;1.98;;;26.30;49.60;;;;;;5061450;28;20036;-56
2021/06/26 05:10:43;;;;;;;2.10;1.52;;;26.30;49.60;;;;;;5061102;28;20079;-57
2021/06/26 05:13:08;;;;;;;2.40;1.65;;;26.30;50.10;;;;;;5047444;28;20445;-60
2021/06/26 05:15:34;;;;;;;2.15;1.67;;;26.30;49.60;;;;;;5048261;28;20106;-55
2021/06/26 05:18:00;;;;;;;2.72;1.75;;;26.30;49.60;;;;;;5062516;28;20094;-55
2021/06/26 05:20:26;;;;;;;2.47;1.77;;;26.30;49.60;;;;;;5064850;28;20402;-55
2021/06/26 05:22:52;;;;;;;2.38;1.80;;;26.20;49.50;;;;;;5059201;28;20499;-58
2021/06/26 05:25:17;;;;;;;2.22;1.67;;;26.20;49.50;;;;;;5060001;28;20055;-58
2021/06/26 05:27:43;;;;;;;2.17;1.67;;;26.20;49.50;;;;;;5051410;28;20025;-55
2021/06/26 05:30:10;;;;;;;2.40;1.70;;;26.30;49.60;;;;;;5052361;28;20070;-56
2021/06/26 05:32:36;;;;;;;2.00;1.50;;;26.20;49.50;;;;;;5047280;28;20426;-52
2021/06/26 05:35:02;;;;;;;2.10;1.50;;;26.20;49.50;;;;;;5062279;28;20044;-59
2021/06/26 05:37:28;;;;;;;2.50;1.77;;;26.20;49.50;;;;;;5055620;28;20412;-55
2021/06/26 05:39:53;;;;;;;2.72;1.77;;;26.20;49.50;;;;;;5047804;28;20052;-55
2021/06/26 05:42:19;;;;;;;1.65;1.30;;;26.20;49.50;;;;;;5052278;28;20036;-58
2021/06/26 05:44:45;;;;;;;2.30;1.73;;;26.20;49.50;;;;;;5048397;28;20033;-54
2021/06/26 05:47:10;;;;;;;2.15;1.63;;;26.20;49.50;;;;;;5064310;28;20538;-58
2021/06/26 05:49:36;;;;;;;3.38;1.60;;;26.20;49.50;;;;;;5065861;28;20068;-56
2021/06/26 05:52:01;;;;;;;2.30;1.63;;;26.20;49.40;;;;;;5050000;28;20032;-58
2021/06/26 05:54:27;;;;;;;2.40;1.75;;;26.20;48.60;;;;;;5054503;28;20036;-58
2021/06/26 05:56:53;;;;;;;3.08;1.80;;;26.20;48.00;;;;;;5064984;28;20098;-59
2021/06/26 05:59:18;;;;;;;2.30;1.90;;;26.20;47.70;;;;;;5063391;28;20373;-54
2021/06/26 06:01:44;;;;;;;2.55;1.80;;;26.10;47.60;;;;;;5064596;28;20038;-58
2021/06/26 06:04:10;;;;;;;2.42;1.70;;;26.00;47.80;;;;;;5060145;28;20172;-59
2021/06/26 06:06:36;;;;;;;2.40;1.90;;;26.00;47.80;;;;;;5046888;28;20495;-55
2021/06/26 06:09:04;;;;;;;2.60;1.90;;;25.90;47.70;;;;;;5045537;28;20383;-56
2021/06/26 06:11:29;;;;;;;2.75;2.17;;;25.90;47.80;;;;;;5058358;28;20406;-57
2021/06/26 06:13:55;;;;;;;2.80;2.15;;;25.90;48.20;;;;;;5059356;28;20032;-59
2021/06/26 06:16:22;;;;;;;2.95;2.13;;;25.80;48.50;;;;;;5050108;28;20063;-60
2021/06/26 06:18:48;;;;;;;2.60;2.17;;;25.70;48.80;;;;;;5064293;28;20151;-57
2021/06/26 06:21:14;;;;;;;3.13;2.50;;;25.60;49.00;;;;;;5064811;28;20119;-59
2021/06/26 06:23:40;;;;;;;3.88;2.80;;;25.60;49.20;;;;;;5051879;28;20085;-58
2021/06/26 06:26:05;;;;;;;3.08;2.40;;;25.60;49.40;;;;;;5061690;28;20041;-54
2021/06/26 06:28:31;;;;;;;3.03;2.50;;;25.50;49.50;;;;;;5051510;28;20119;-57
2021/06/26 06:30:56;;;;;;;3.30;2.40;;;25.50;49.70;;;;;;5060683;28;20467;-56
2021/06/26 06:33:22;;;;;;;3.42;2.90;;;25.40;49.70;;;;;;5057461;28;20028;-55
2021/06/26 06:35:48;;;;;;;3.05;2.42;;;25.40;50.10;;;;;;5050696;28;20064;-53
2021/06/26 06:38:14;;;;;;;3.38;2.90;;;25.40;50.20;;;;;;5052245;28;20035;-58
2021/06/26 06:40:40;;;;;;;4.05;3.45;;;25.40;50.60;;;;;;5058645;28;20029;-59
2021/06/26 06:43:06;;;;;;;4.57;3.83;;;25.30;50.60;;;;;;5046971;28;20060;-56
2021/06/26 06:45:32;;;;;;;3.85;3.35;;;25.30;50.80;;;;;;5050577;28;20025;-56
2021/06/26 06:47:57;;;;;;;3.92;3.33;;;25.20;50.80;;;;;;5053175;28;20126;-57
2021/06/26 06:50:23;;;;;;;4.35;3.35;;;25.20;50.90;;;;;;5057525;28;20468;-59
2021/06/26 06:52:49;;;;;;;4.13;3.60;;;25.20;51.00;;;;;;5049933;28;20036;-56
2021/06/26 06:55:14;;;;;;;5.00;4.40;;;25.20;51.20;;;;;;5047171;28;20343;-58
2021/06/26 06:57:40;;;;;;;4.03;3.53;;;25.20;51.60;;;;;;5046273;28;20045;-57
2021/06/26 07:00:08;;;;;;;4.90;4.38;;;25.20;51.20;;;;;;5063296;28;20040;-52
2021/06/26 07:02:34;;;;;;;5.50;4.88;;;25.10;52.00;;;;;;5051879;28;20479;-56
2021/06/26 07:04:59;;;;;;;5.82;5.22;;;25.00;51.70;;;;;;5049667;28;20060;-57
2021/06/26 07:07:25;;;;;;;4.65;4.18;;;24.90;52.00;;;;;;5047260;28;20025;-57
2021/06/26 07:09:51;;;;;;;5.35;4.38;;;24.90;51.90;;;;;;5048807;28;20075;-59
2021/06/26 07:12:16;;;;;;;7.03;6.00;;;24.90;52.10;;;;;;5050927;28;20417;-56
2021/06/26 07:14:42;;;;;;;7.10;6.40;;;24.80;53.00;;;;;;5056829;28;20039;-58
2021/06/26 07:17:08;;;;;;;6.30;5.70;;;24.60;53.50;;;;;;5052330;28;20466;-60
2021/06/26 07:19:33;;;;;;;6.55;5.85;;;24.60;53.90;;;;;;5048325;28;20029;-59
2021/06/26 07:21:59;;;;;;;5.75;4.97;;;24.50;54.30;;;;;;5045814;28;20114;-54
2021/06/26 07:24:25;;;;;;;4.90;4.40;;;24.50;54.30;;;;;;5048984;28;20441;-56
2021/06/26 07:26:51;;;;;;;5.22;4.72;;;24.60;53.60;;;;;;5053082;28;20032;-56
2021/06/26 07:29:20;;;;;;;5.82;4.90;;;24.60;53.50;;;;;;5053622;28;20025;-53
2021/06/26 07:31:46;;;;;;;5.85;5.22;;;24.60;53.40;;;;;;5050001;28;20134;-54
2021/06/26 07:34:12;;;;;;;5.70;5.03;;;24.70;53.40;;;;;;5053340;28;20044;-57
2021/06/26 07:36:38;;;;;;;5.82;5.20;;;24.70;54.00;;;;;;5055399;28;20032;-56
2021/06/26 07:39:04;;;;;;;6.10;4.82;;;24.80;53.40;;;;;;5065559;28;20025;-59
2021/06/26 07:41:30;;;;;;;5.40;4.90;;;24.80;53.40;;;;;;5059317;28;20116;-57
2021/06/26 07:43:56;;;;;;;5.70;5.10;;;24.80;53.50;;;;;;5048021;28;20495;-60
2021/06/26 07:46:21;;;;;;;5.50;4.72;;;24.70;53.40;;;;;;5047213;28;20053;-57
2021/06/26 07:48:47;;;;;;;6.22;5.40;;;24.70;53.80;;;;;;5055994;28;20358;-55
2021/06/26 07:51:13;;;;;;;6.97;6.28;;;24.70;53.60;;;;;;5051203;28;20118;-57
2021/06/26 07:53:39;;;;;;;6.57;5.88;;;24.80;53.70;;;;;;5048958;28;20045;-56
2021/06/26 07:56:05;;;;;;;6.97;6.28;;;24.70;54.00;;;;;;5066412;28;20024;-56
2021/06/26 07:58:31;;;;;;;6.45;5.80;;;24.70;54.00;;;;;;5066904;28;20040;-58
2021/06/26 08:00:57;;;;;;;6.25;5.65;;;24.70;54.10;;;;;;5068588;28;20093;-56
2021/06/26 08:03:24;;;;;;;7.03;6.32;;;24.70;54.50;;;;;;5067136;28;20432;-57
2021/06/26 08:05:50;;;;;;;7.05;6.13;;;24.70;54.60;;;;;;5069804;28;20348;-54
2021/06/26 08:08:17;;;;;;;6.80;6.10;;;24.70;54.20;;;;;;5068799;28;20036;-57
2021/06/26 08:10:43;;;;;;;6.68;6.07;;;24.70;54.60;;;;;;5062550;28;20032;-58
2021/06/26 08:13:09;;;;;;;6.35;5.72;;;24.60;54.40;;;;;;5066189;28;20035;-59
2021/06/26 08:15:38;;;;;;;6.57;5.93;;;24.70;54.50;;;;;;5057483;28;20025;-58
2021/06/26 08:18:04;;;;;;;6.97;6.27;;;24.60;54.50;;;;;;5058614;28;20028;-54
2021/06/26 08:20:31;;;;;;;6.60;5.88;;;24.60;54.40;;;;;;5066950;28;20270;-57
2021/06/26 08:22:57;;;;;;;7.07;6.38;;;24.70;54.60;;;;;;5068086;28;20347;-55
2021/06/26 08:25:23;;;;;;;7.22;6.53;;;24.70;54.90;;;;;;5065772;28;20024;-59
2021/06/26 08:27:49;;;;;;;7.53;6.82;;;24.70;55.00;;;;;;5060131;28;20047;-54
2021/06/26 08:30:15;;;;;;;7.80;7.00;;;24.70;55.00;;;;;;5063454;28;20029;-57
2021/06/26 08:32:43;;;;;;;6.70;6.00;;;24.70;55.00;;;;;;5052869;28;20117;-59
2021/06/26 08:35:09;;;;;;;7.03;6.25;;;24.70;55.30;;;;;;5063219;28;20795;-58
2021/06/26 08:37:35;;;;;;;7.93;6.30;;;24.70;55.10;;;;;;5059862;28;20431;-58
2021/06/26 08:40:00;;;;;;;6.50;5.90;;;24.70;54.80;;;;;;5051635;28;20068;-57
2021/06/26 08:42:26;;;;;;;7.97;7.18;;;24.70;54.90;;;;;;5055298;28;20091;-60
2021/06/26 08:44:58;;;;;;;7.40;6.70;;;24.70;54.60;;;;;;5053707;28;20033;-60
2021/06/26 08:47:25;;;;;;;6.95;6.30;;;24.70;54.40;;;;;;5066737;28;20033;-59
2021/06/26 08:49:51;;;;;;;7.00;6.30;;;24.70;54.50;;;;;;5065264;28;20040;-56
2021/06/26 08:52:17;;;;;;;6.63;5.88;;;24.80;54.70;;;;;;5053052;28;20385;-54
2021/06/26 08:54:42;;;;;;;6.97;6.28;;;24.80;54.40;;;;;;5062897;28;20028;-59
2021/06/26 08:57:09;;;;;;;7.15;6.47;;;24.80;54.30;;;;;;5060317;28;20040;-59
2021/06/26 08:59:34;;;;;;;7.00;6.30;;;24.80;54.20;;;;;;5062520;28;20438;-58
2021/06/26 09:02:01;;;;;;;7.00;6.30;;;24.80;54.10;;;;;;5063924;28;20056;-53
2021/06/26 09:04:27;;;;;;;6.57;5.97;;;24.80;53.90;;;;;;5059710;28;20065;-58
2021/06/26 09:06:58;;;;;;;6.68;6.00;;;24.80;54.00;;;;;;5065965;28;20139;-57
2021/06/26 09:09:32;;;;;;;6.18;5.47;;;24.80;54.00;;;;;;5068263;28;20020;-52
2021/06/26 09:12:05;;;;;;;6.10;5.50;;;24.80;54.00;;;;;;5067182;28;20033;-56
2021/06/26 09:14:32;;;;;;;6.07;5.47;;;24.80;53.70;;;;;;5058877;28;20082;-52
2021/06/26 09:16:58;;;;;;;5.10;4.60;;;24.80;53.80;;;;;;5061101;28;20032;-57
2021/06/26 09:19:24;;;;;;;5.15;4.63;;;24.80;53.70;;;;;;5066430;28;20063;-58
2021/06/26 09:22:17;;;;;;;5.00;4.50;;;24.80;53.70;;;;;;5054690;28;20025;-52
2021/06/26 09:24:45;;;;;;;5.00;4.25;;;24.90;53.60;;;;;;5052146;28;20072;-55
2021/06/26 09:27:12;;;;;;;4.85;4.35;;;24.80;53.50;;;;;;5055091;28;20031;-56
2021/06/26 09:29:51;;;;;;;4.25;3.80;;;24.90;53.40;;;;;;5059728;28;20454;-57
2021/06/26 09:32:22;;;;;;;4.25;3.70;;;24.90;53.40;;;;;;5057315;28;20486;-55
2021/06/26 09:34:49;;;;;;;3.88;3.50;;;24.90;53.30;;;;;;5052158;28;20031;-55
2021/06/26 09:37:17;;;;;;;4.30;3.90;;;24.90;53.30;;;;;;5062921;28;20174;-56
2021/06/26 09:39:45;;;;;;;4.35;3.88;;;25.00;53.20;;;;;;5049967;28;20078;-56
2021/06/26 09:42:16;;;;;;;4.07;3.67;;;24.90;53.10;;;;;;5056992;28;20033;-58
2021/06/26 09:44:59;;;;;;;3.97;3.58;;;24.90;53.10;;;;;;5057488;28;20104;-56
2021/06/26 09:47:31;;;;;;;3.78;3.38;;;25.00;53.10;;;;;;5061738;28;20270;-57
2021/06/26 09:50:19;;;;;;;3.92;3.50;;;25.00;53.00;;;;;;5066011;28;20037;-54
2021/06/26 09:52:45;;;;;;;4.07;3.65;;;25.00;53.00;;;;;;5055820;28;20070;-57
2021/06/26 09:55:27;;;;;;;3.63;3.33;;;25.00;52.90;;;;;;5059910;28;20045;-56
2021/06/26 09:57:54;;;;;;;3.90;3.50;;;25.00;52.80;;;;;;5060695;28;20064;-55
2021/06/26 10:00:23;;;;;;;3.40;3.03;;;25.00;52.80;;;;;;5063367;28;20480;-54
2021/06/26 10:02:49;;;;;;;4.40;3.60;;;25.00;52.70;;;;;;5063468;28;20502;-56
2021/06/26 10:05:16;;;;;;;3.90;3.38;;;25.00;52.60;;;;;;5052825;28;20328;-55
2021/06/26 10:07:44;;;;;;;4.18;3.47;;;25.00;52.60;;;;;;5058128;28;20056;-52
2021/06/26 10:10:12;;;;;;;3.60;3.30;;;25.00;52.60;;;;;;5055402;28;20082;-59
2021/06/26 10:12:38;;;;;;;4.28;3.20;;;25.00;52.50;;;;;;5060354;28;20587;-59
2021/06/26 10:15:06;;;;;;;3.60;3.30;;;25.10;52.60;;;;;;5057351;28;20036;-55
2021/06/26 10:17:34;;;;;;;3.33;3.00;;;25.10;52.50;;;;;;5061109;28;20323;-50
2021/06/26 10:20:01;;;;;;;3.47;3.17;;;25.10;53.00;;;;;;5052956;28;20055;-55
2021/06/26 10:22:26;;;;;;;4.22;3.08;;;25.10;52.50;;;;;;5054881;28;20110;-55
2021/06/26 10:24:53;;;;;;;4.07;3.00;;;25.10;52.50;;;;;;5058534;28;20041;-54
2021/06/26 10:27:22;;;;;;;3.78;3.28;;;25.10;52.40;;;;;;5055792;28;20545;-51
2021/06/26 10:29:49;;;;;;;3.42;2.95;;;25.10;52.40;;;;;;5052343;28;20046;-57
2021/06/26 10:32:17;;;;;;;3.17;2.85;;;25.10;52.50;;;;;;5049881;28;20055;-55
2021/06/26 10:34:47;;;;;;;3.55;3.00;;;25.10;52.40;;;;;;5057465;28;20487;-54
2021/06/26 10:37:19;;;;;;;3.10;2.80;;;25.10;52.40;;;;;;5059040;28;20112;-54
2021/06/26 10:39:46;;;;;;;3.30;3.00;;;25.10;52.40;;;;;;5052567;28;20028;-55
2021/06/26 10:42:14;;;;;;;3.20;2.90;;;25.10;52.30;;;;;;5059632;28;20094;-57
2021/06/26 10:44:47;;;;;;;3.03;2.73;;;25.10;52.30;;;;;;5066309;28;20056;-54
2021/06/26 10:47:14;;;;;;;2.92;2.60;;;25.20;52.30;;;;;;5053097;28;20032;-57
2021/06/26 10:49:40;;;;;;;3.22;2.90;;;25.20;52.30;;;;;;5055116;28;20056;-59
2021/06/26 10:52:12;;;;;;;3.10;2.80;;;25.20;52.30;;;;;;5055278;28;20048;-55
2021/06/26 10:54:56;;;;;;;3.33;2.90;;;25.20;52.30;;;;;;5062603;28;20241;-56
2021/06/26 10:57:23;;;;;;;3.13;2.83;;;25.20;52.30;;;;;;5057639;28;20495;-54
2021/06/26 10:59:59;;;;;;;3.55;2.97;;;25.20;52.70;;;;;;5047306;28;20036;-53
2021/06/26 11:02:36;;;;;;;3.35;3.00;;;25.20;52.20;;;;;;5057569;28;20175;-57
2021/06/26 11:05:02;;;;;;;3.20;2.90;;;25.20;52.20;;;;;;5045905;28;20028;-58
2021/06/26 11:07:33;;;;;;;3.53;2.90;;;25.20;52.10;;;;;;5056626;28;20070;-56
2021/06/26 11:10:11;;;;;;;3.55;2.85;;;25.20;52.10;;;;;;5047965;28;20645;-57
2021/06/26 11:12:39;;;;;;;3.20;2.90;;;25.30;52.20;;;;;;5059118;28;20479;-55
2021/06/26 11:15:06;;;;;;;3.33;2.97;;;25.30;52.10;;;;;;5047369;28;20040;-56
2021/06/26 11:17:40;;;;;;;4.05;2.65;;;25.30;52.10;;;;;;5049505;28;20033;-54
2021/06/26 11:20:09;;;;;;;3.42;2.78;;;25.30;52.00;;;;;;5062005;28;20113;-53
2021/06/26 11:22:35;;;;;;;2.90;2.58;;;25.30;51.90;;;;;;5063773;28;20143;-57
2021/06/26 11:25:03;;;;;;;3.38;2.67;;;25.30;52.00;;;;;;5052801;28;20782;-55
2021/06/26 11:27:29;;;;;;;3.72;2.63;;;25.30;51.90;;;;;;5053931;28;20040;-60
2021/06/26 11:30:06;;;;;;;4.53;2.72;;;25.30;51.90;;;;;;5058636;28;20036;-59
2021/06/26 11:32:32;;;;;;;3.10;2.80;;;25.30;51.90;;;;;;5064250;28;20036;-57
2021/06/26 11:35:16;;;;;;;3.03;2.50;;;25.40;52.00;;;;;;5062664;28;20553;-55
2021/06/26 11:37:50;;;;;;;3.22;2.75;;;25.40;51.90;;;;;;5051662;28;20438;-53
2021/06/26 11:40:23;;;;;;;3.10;2.80;;;25.40;51.90;;;;;;5059855;28;20033;-55
2021/06/26 11:42:52;;;;;;;3.15;2.85;;;25.40;51.80;;;;;;5052543;28;20746;-59
2021/06/26 11:45:26;;;;;;;3.17;2.72;;;25.40;52.20;;;;;;5048369;28;20583;-58
2021/06/26 11:48:00;;;;;;;2.70;2.35;;;25.40;51.70;;;;;;5054561;28;20060;-57
2021/06/26 11:50:26;;;;;;;3.17;2.88;;;25.40;51.70;;;;;;5057015;28;20063;-58
2021/06/26 11:53:01;;;;;;;2.75;2.45;;;25.40;51.80;;;;;;5056899;28;20412;-56
2021/06/26 11:55:27;;;;;;;3.10;2.50;;;25.40;51.70;;;;;;5063946;28;20047;-53
2021/06/26 11:57:53;;;;;;;2.97;2.67;;;25.40;51.60;;;;;;5059950;28;20443;-56
2021/06/26 12:00:19;;;;;;;3.10;2.60;;;25.40;51.60;;;;;;5055365;28;20052;-59
2021/06/26 12:02:44;;;;;;;2.72;2.47;;;25.40;51.50;;;;;;5049429;28;20029;-58
2021/06/26 12:05:20;;;;;;;2.70;2.40;;;25.40;51.50;;;;;;5065844;28;20024;-59
2021/06/26 12:07:45;;;;;;;2.60;2.30;;;25.50;51.60;;;;;;5063121;28;20033;-56
2021/06/26 12:10:11;;;;;;;2.90;2.60;;;25.40;51.40;;;;;;5065022;28;20044;-57
2021/06/26 12:12:39;;;;;;;3.17;2.78;;;25.50;51.50;;;;;;5062628;28;20736;-56
2021/06/26 12:15:09;;;;;;;2.60;2.40;;;25.50;51.50;;;;;;5045885;28;20519;-57
2021/06/26 12:17:36;;;;;;;2.80;2.50;;;25.50;51.50;;;;;;5063280;28;20793;-53
2021/06/26 12:20:06;;;;;;;3.08;2.60;;;25.50;51.40;;;;;;5063948;28;20519;-56
2021/06/26 12:22:32;;;;;;;2.85;2.55;;;25.50;51.40;;;;;;5050556;28;20028;-52
2021/06/26 12:25:33;;;;;;;2.97;2.40;;;25.50;51.40;;;;;;5048091;28;20129;-58
2021/06/26 12:28:00;;;;;;;3.08;2.78;;;25.50;51.70;;;;;;5059913;28;20025;-59
2021/06/26 12:30:26;;;;;;;2.90;2.40;;;25.50;51.80;;;;;;5055488;28;20041;-53
2021/06/26 12:33:05;;;;;;;3.03;2.72;;;25.50;51.90;;;;;;5046225;28;20044;-56
2021/06/26 12:35:31;;;;;;;3.22;2.72;;;25.60;52.00;;;;;;5053000;28;20028;-58
2021/06/26 12:37:56;;;;;;;3.13;2.70;;;25.60;52.00;;;;;;5052642;28;20048;-55
2021/06/26 12:40:31;;;;;;;3.22;2.90;;;25.60;51.90;;;;;;5056354;28;20096;-55
2021/06/26 12:42:59;;;;;;;3.30;3.00;;;25.60;51.90;;;;;;5057197;28;20040;-56
2021/06/26 12:45:36;;;;;;;3.42;3.13;;;25.70;51.90;;;;;;5053279;28;20110;-57
2021/06/26 12:48:14;;;;;;;3.63;3.00;;;25.70;52.00;;;;;;5058007;28;20115;-56